sensor_id;sensor_type;location;lat;lon;timestamp;temperature;humidity
23411;DHT22;11878;51.774;7.220;2023-10-31T00:00:06;12.70;99.90
23411;DHT22;11878;51.774;7.220;2023-10-31T00:03:08;12.70;99.90
23411;DHT22;11878;51.774;7.220;2023-10-31T00:06:10;12.80;99.90
23411;DHT22;11878;51.774;7.220;2023-10-31T00:09:12;12.80;99.90
23411;DHT22;11878;51.774;7.220;2023-10-31T00:12:13;12.70;99.90
23411;DHT22;11878;51.774;7.220;2023-10-31T00:15:15;12.70;99.90
23411;DHT22;11878;51.774;7.220;2023-10-31T00:18:17;12.70;99.90
23411;DHT22;11878;51.774;7.220;2023-10-31T00:21:19;12.70;99.90
23411;DHT22;11878;51.774;7.220;2023-10-31T00:24:21;12.70;99.90
23411;DHT22;11878;51.774;7.220;2023-10-31T00:27:23;12.70;99.90
23411;DHT22;11878;51.774;7.220;2023-10-31T00:30:25;12.70;99.90
23411;DHT22;11878;51.774;7.220;2023-10-31T00:33:26;12.60;99.90
23411;DHT22;11878;51.774;7.220;2023-10-31T00:36:28;12.60;99.90
23411;DHT22;11878;51.774;7.220;2023-10-31T00:39:30;12.60;99.90
23411;DHT22;11878;51.774;7.220;2023-10-31T00:42:32;12.60;99.90
23411;DHT22;11878;51.774;7.220;2023-10-31T00:45:34;12.60;99.90
23411;DHT22;11878;51.774;7.220;2023-10-31T00:48:35;12.50;99.90
23411;DHT22;11878;51.774;7.220;2023-10-31T00:51:38;12.40;99.90
23411;DHT22;11878;51.774;7.220;2023-10-31T00:54:40;11.90;99.90
23411;DHT22;11878;51.774;7.220;2023-10-31T00:57:42;11.60;99.90
23411;DHT22;11878;51.774;7.220;2023-10-31T01:00:44;11.40;99.90
23411;DHT22;11878;51.774;7.220;2023-10-31T01:03:45;11.40;99.90
23411;DHT22;11878;51.774;7.220;2023-10-31T01:06:47;11.30;99.90
23411;DHT22;11878;51.774;7.220;2023-10-31T01:09:49;11.20;99.90
23411;DHT22;11878;51.774;7.220;2023-10-31T01:12:51;11.20;99.90
23411;DHT22;11878;51.774;7.220;2023-10-31T01:15:53;11.20;99.90
23411;DHT22;11878;51.774;7.220;2023-10-31T01:18:55;11.20;99.90
23411;DHT22;11878;51.774;7.220;2023-10-31T01:21:56;11.10;99.90
23411;DHT22;11878;51.774;7.220;2023-10-31T01:24:58;11.10;99.90
23411;DHT22;11878;51.774;7.220;2023-10-31T01:28:00;11.10;99.90
23411;DHT22;11878;51.774;7.220;2023-10-31T01:34:32;11.10;99.90
23411;DHT22;11878;51.774;7.220;2023-10-31T01:37:34;11.00;99.90
23411;DHT22;11878;51.774;7.220;2023-10-31T01:40:36;10.90;99.90
23411;DHT22;11878;51.774;7.220;2023-10-31T01:43:38;10.90;99.90
23411;DHT22;11878;51.774;7.220;2023-10-31T01:46:40;10.90;99.90
23411;DHT22;11878;51.774;7.220;2023-10-31T01:53:19;10.90;99.90
23411;DHT22;11878;51.774;7.220;2023-10-31T01:56:22;10.90;99.90
23411;DHT22;11878;51.774;7.220;2023-10-31T01:59:25;10.90;99.90
23411;DHT22;11878;51.774;7.220;2023-10-31T02:02:28;10.90;99.90
23411;DHT22;11878;51.774;7.220;2023-10-31T02:05:31;10.90;99.90
23411;DHT22;11878;51.774;7.220;2023-10-31T02:08:34;10.90;99.90
23411;DHT22;11878;51.774;7.220;2023-10-31T02:11:35;10.90;99.90
23411;DHT22;11878;51.774;7.220;2023-10-31T02:14:37;10.90;99.90
23411;DHT22;11878;51.774;7.220;2023-10-31T02:17:39;10.90;99.90
23411;DHT22;11878;51.774;7.220;2023-10-31T02:20:41;10.90;99.90
23411;DHT22;11878;51.774;7.220;2023-10-31T02:23:43;10.80;99.90
23411;DHT22;11878;51.774;7.220;2023-10-31T02:26:45;10.80;99.90
23411;DHT22;11878;51.774;7.220;2023-10-31T02:29:46;10.80;99.90
23411;DHT22;11878;51.774;7.220;2023-10-31T02:32:48;10.70;99.90
23411;DHT22;11878;51.774;7.220;2023-10-31T02:35:50;10.70;99.90
23411;DHT22;11878;51.774;7.220;2023-10-31T02:38:52;10.70;99.90
23411;DHT22;11878;51.774;7.220;2023-10-31T02:41:54;10.60;99.90
23411;DHT22;11878;51.774;7.220;2023-10-31T02:44:56;10.60;99.90
23411;DHT22;11878;51.774;7.220;2023-10-31T02:47:58;10.60;99.90
23411;DHT22;11878;51.774;7.220;2023-10-31T02:51:00;10.60;99.90
23411;DHT22;11878;51.774;7.220;2023-10-31T02:54:02;10.60;99.90
23411;DHT22;11878;51.774;7.220;2023-10-31T02:57:04;10.60;99.90
23411;DHT22;11878;51.774;7.220;2023-10-31T03:00:06;10.60;99.90
23411;DHT22;11878;51.774;7.220;2023-10-31T03:03:08;10.60;99.90
23411;DHT22;11878;51.774;7.220;2023-10-31T03:06:10;12.60;99.90
23411;DHT22;11878;51.774;7.220;2023-10-31T03:09:12;10.60;99.90
23411;DHT22;11878;51.774;7.220;2023-10-31T03:12:14;10.50;99.90
23411;DHT22;11878;51.774;7.220;2023-10-31T03:15:16;10.60;99.90
23411;DHT22;11878;51.774;7.220;2023-10-31T03:21:55;10.60;99.90
23411;DHT22;11878;51.774;7.220;2023-10-31T03:24:57;10.60;99.90
23411;DHT22;11878;51.774;7.220;2023-10-31T03:27:59;10.60;99.90
23411;DHT22;11878;51.774;7.220;2023-10-31T03:31:01;10.60;99.90
23411;DHT22;11878;51.774;7.220;2023-10-31T03:34:02;7.90;99.90
23411;DHT22;11878;51.774;7.220;2023-10-31T03:37:04;10.60;99.90
23411;DHT22;11878;51.774;7.220;2023-10-31T03:40:08;10.60;99.90
23411;DHT22;11878;51.774;7.220;2023-10-31T03:43:10;10.60;99.90
23411;DHT22;11878;51.774;7.220;2023-10-31T03:46:12;10.60;99.90
23411;DHT22;11878;51.774;7.220;2023-10-31T03:49:14;10.60;99.90
23411;DHT22;11878;51.774;7.220;2023-10-31T03:52:15;10.60;99.90
23411;DHT22;11878;51.774;7.220;2023-10-31T03:55:18;10.60;99.90
23411;DHT22;11878;51.774;7.220;2023-10-31T03:58:19;10.60;99.90
23411;DHT22;11878;51.774;7.220;2023-10-31T04:01:21;10.70;99.90
23411;DHT22;11878;51.774;7.220;2023-10-31T04:04:23;10.60;99.90
23411;DHT22;11878;51.774;7.220;2023-10-31T04:07:25;10.70;99.90
23411;DHT22;11878;51.774;7.220;2023-10-31T04:10:27;10.60;99.90
23411;DHT22;11878;51.774;7.220;2023-10-31T04:13:29;10.60;99.90
23411;DHT22;11878;51.774;7.220;2023-10-31T04:16:31;10.70;99.90
23411;DHT22;11878;51.774;7.220;2023-10-31T04:19:36;10.70;99.90
23411;DHT22;11878;51.774;7.220;2023-10-31T04:22:38;10.70;99.90
23411;DHT22;11878;51.774;7.220;2023-10-31T04:25:40;10.70;99.90
23411;DHT22;11878;51.774;7.220;2023-10-31T04:28:42;10.70;99.90
23411;DHT22;11878;51.774;7.220;2023-10-31T04:31:43;10.70;99.90
23411;DHT22;11878;51.774;7.220;2023-10-31T04:38:22;10.70;99.90
23411;DHT22;11878;51.774;7.220;2023-10-31T04:41:24;10.70;99.90
23411;DHT22;11878;51.774;7.220;2023-10-31T04:48:03;10.70;99.90
23411;DHT22;11878;51.774;7.220;2023-10-31T04:51:06;10.80;99.90
23411;DHT22;11878;51.774;7.220;2023-10-31T05:01:23;10.80;99.90
23411;DHT22;11878;51.774;7.220;2023-10-31T05:04:25;10.80;99.90
23411;DHT22;11878;51.774;7.220;2023-10-31T05:07:28;10.80;99.90
23411;DHT22;11878;51.774;7.220;2023-10-31T05:10:30;10.80;99.90
23411;DHT22;11878;51.774;7.220;2023-10-31T05:13:32;10.80;99.90
23411;DHT22;11878;51.774;7.220;2023-10-31T05:16:39;10.80;99.90
23411;DHT22;11878;51.774;7.220;2023-10-31T05:23:19;10.70;99.90
23411;DHT22;11878;51.774;7.220;2023-10-31T05:26:21;10.70;99.90
23411;DHT22;11878;51.774;7.220;2023-10-31T05:29:23;10.80;99.90
23411;DHT22;11878;51.774;7.220;2023-10-31T05:46:28;10.70;99.90
23411;DHT22;11878;51.774;7.220;2023-10-31T05:53:08;10.70;99.90
23411;DHT22;11878;51.774;7.220;2023-10-31T06:20:40;10.50;99.90
23411;DHT22;11878;51.774;7.220;2023-10-31T06:23:42;10.50;99.90
23411;DHT22;11878;51.774;7.220;2023-10-31T06:26:46;10.50;99.90
23411;DHT22;11878;51.774;7.220;2023-10-31T06:29:48;10.60;99.90
23411;DHT22;11878;51.774;7.220;2023-10-31T06:43:40;10.40;99.90
23411;DHT22;11878;51.774;7.220;2023-10-31T06:46:42;10.40;99.90
23411;DHT22;11878;51.774;7.220;2023-10-31T06:49:44;10.40;99.90
23411;DHT22;11878;51.774;7.220;2023-10-31T07:10:58;10.60;99.90
23411;DHT22;11878;51.774;7.220;2023-10-31T07:14:03;10.60;99.90
23411;DHT22;11878;51.774;7.220;2023-10-31T07:17:05;10.60;99.90
23411;DHT22;11878;51.774;7.220;2023-10-31T07:44:47;11.00;99.90
23411;DHT22;11878;51.774;7.220;2023-10-31T07:47:49;11.10;99.90
23411;DHT22;11878;51.774;7.220;2023-10-31T08:27:05;11.10;99.90
23411;DHT22;11878;51.774;7.220;2023-10-31T08:37:06;11.40;99.90
23411;DHT22;11878;51.774;7.220;2023-10-31T08:40:09;11.40;99.90
23411;DHT22;11878;51.774;7.220;2023-10-31T09:04:30;11.70;99.90
23411;DHT22;11878;51.774;7.220;2023-10-31T09:07:32;11.70;99.90
23411;DHT22;11878;51.774;7.220;2023-10-31T09:14:29;11.50;99.90
23411;DHT22;11878;51.774;7.220;2023-10-31T09:46:14;12.40;99.90
23411;DHT22;11878;51.774;7.220;2023-10-31T09:49:16;12.50;99.90
23411;DHT22;11878;51.774;7.220;2023-10-31T10:14:05;13.40;99.90
23411;DHT22;11878;51.774;7.220;2023-10-31T10:17:16;13.10;99.90
23411;DHT22;11878;51.774;7.220;2023-10-31T10:20:18;13.00;99.90
23411;DHT22;11878;51.774;7.220;2023-10-31T10:23:20;12.90;99.90
23411;DHT22;11878;51.774;7.220;2023-10-31T10:37:09;12.50;99.90
23411;DHT22;11878;51.774;7.220;2023-10-31T11:29:07;12.30;99.90
23411;DHT22;11878;51.774;7.220;2023-10-31T11:50:07;12.50;99.90
23411;DHT22;11878;51.774;7.220;2023-10-31T11:53:14;12.70;99.90
23411;DHT22;11878;51.774;7.220;2023-10-31T11:59:55;12.80;99.90
23411;DHT22;11878;51.774;7.220;2023-10-31T12:06:28;12.60;99.90
23411;DHT22;11878;51.774;7.220;2023-10-31T12:09:30;12.40;99.90
23411;DHT22;11878;51.774;7.220;2023-10-31T12:19:30;12.60;99.90
23411;DHT22;11878;51.774;7.220;2023-10-31T12:29:40;13.10;99.90
23411;DHT22;11878;51.774;7.220;2023-10-31T13:04:29;13.20;99.90
23411;DHT22;11878;51.774;7.220;2023-10-31T13:18:25;13.50;99.90
23411;DHT22;11878;51.774;7.220;2023-10-31T13:21:27;13.40;99.90
23411;DHT22;11878;51.774;7.220;2023-10-31T13:24:29;13.20;99.90
23411;DHT22;11878;51.774;7.220;2023-10-31T13:31:01;13.20;99.90
23411;DHT22;11878;51.774;7.220;2023-10-31T13:34:04;13.10;99.90
23411;DHT22;11878;51.774;7.220;2023-10-31T13:37:06;12.90;99.90
23411;DHT22;11878;51.774;7.220;2023-10-31T14:21:10;12.40;99.90
23411;DHT22;11878;51.774;7.220;2023-10-31T14:31:39;12.60;99.90
23411;DHT22;11878;51.774;7.220;2023-10-31T14:34:41;12.70;99.90
23411;DHT22;11878;51.774;7.220;2023-10-31T14:51:19;12.50;99.90
23411;DHT22;11878;51.774;7.220;2023-10-31T15:15:27;11.90;99.90
23411;DHT22;11878;51.774;7.220;2023-10-31T15:21:59;12.00;99.90
23411;DHT22;11878;51.774;7.220;2023-10-31T15:25:02;12.00;99.90
23411;DHT22;11878;51.774;7.220;2023-10-31T15:28:04;12.00;99.90
23411;DHT22;11878;51.774;7.220;2023-10-31T16:55:31;11.10;99.90
23411;DHT22;11878;51.774;7.220;2023-10-31T16:58:33;11.20;99.90
23411;DHT22;11878;51.774;7.220;2023-10-31T17:22:33;11.20;99.90
23411;DHT22;11878;51.774;7.220;2023-10-31T17:25:37;11.20;99.90
23411;DHT22;11878;51.774;7.220;2023-10-31T17:28:40;11.30;99.90
23411;DHT22;11878;51.774;7.220;2023-10-31T17:38:57;11.20;99.90
23411;DHT22;11878;51.774;7.220;2023-10-31T17:49:01;11.30;99.90
23411;DHT22;11878;51.774;7.220;2023-10-31T17:52:03;11.30;99.90
23411;DHT22;11878;51.774;7.220;2023-10-31T18:02:07;11.20;99.90
23411;DHT22;11878;51.774;7.220;2023-10-31T18:05:09;11.30;99.90
23411;DHT22;11878;51.774;7.220;2023-10-31T18:08:11;11.20;99.90
23411;DHT22;11878;51.774;7.220;2023-10-31T18:11:13;11.20;99.90
23411;DHT22;11878;51.774;7.220;2023-10-31T18:17:46;11.20;99.90
23411;DHT22;11878;51.774;7.220;2023-10-31T18:20:47;11.30;99.90
23411;DHT22;11878;51.774;7.220;2023-10-31T18:23:52;11.30;99.90
23411;DHT22;11878;51.774;7.220;2023-10-31T18:26:54;11.30;99.90
23411;DHT22;11878;51.774;7.220;2023-10-31T18:29:57;11.30;99.90
23411;DHT22;11878;51.774;7.220;2023-10-31T18:32:59;11.20;99.90
23411;DHT22;11878;51.774;7.220;2023-10-31T18:36:05;11.20;99.90
23411;DHT22;11878;51.774;7.220;2023-10-31T18:46:22;11.20;99.90
23411;DHT22;11878;51.774;7.220;2023-10-31T18:49:24;11.20;99.90
23411;DHT22;11878;51.774;7.220;2023-10-31T18:52:26;11.30;99.90
23411;DHT22;11878;51.774;7.220;2023-10-31T18:55:28;11.30;99.90
23411;DHT22;11878;51.774;7.220;2023-10-31T18:58:29;11.30;99.90
23411;DHT22;11878;51.774;7.220;2023-10-31T19:08:33;11.30;99.90
23411;DHT22;11878;51.774;7.220;2023-10-31T19:15:12;11.30;99.90
23411;DHT22;11878;51.774;7.220;2023-10-31T19:28:40;11.30;99.90
23411;DHT22;11878;51.774;7.220;2023-10-31T19:31:43;11.20;99.90
23411;DHT22;11878;51.774;7.220;2023-10-31T19:38:15;11.20;99.90
23411;DHT22;11878;51.774;7.220;2023-10-31T19:41:17;11.20;99.90
23411;DHT22;11878;51.774;7.220;2023-10-31T19:44:19;11.20;99.90
23411;DHT22;11878;51.774;7.220;2023-10-31T19:47:21;11.20;99.90
23411;DHT22;11878;51.774;7.220;2023-10-31T19:50:23;11.20;99.90
23411;DHT22;11878;51.774;7.220;2023-10-31T19:53:25;11.20;99.90
23411;DHT22;11878;51.774;7.220;2023-10-31T19:56:27;11.20;99.90
23411;DHT22;11878;51.774;7.220;2023-10-31T19:59:29;11.30;99.90
23411;DHT22;11878;51.774;7.220;2023-10-31T20:02:31;11.30;99.90
23411;DHT22;11878;51.774;7.220;2023-10-31T20:05:33;11.30;99.90
23411;DHT22;11878;51.774;7.220;2023-10-31T20:08:36;11.30;99.90
23411;DHT22;11878;51.774;7.220;2023-10-31T20:11:38;11.30;99.90
23411;DHT22;11878;51.774;7.220;2023-10-31T20:18:04;11.30;99.90
23411;DHT22;11878;51.774;7.220;2023-10-31T20:21:06;11.30;99.90
23411;DHT22;11878;51.774;7.220;2023-10-31T20:24:08;11.30;99.90
23411;DHT22;11878;51.774;7.220;2023-10-31T20:27:10;11.30;99.90
23411;DHT22;11878;51.774;7.220;2023-10-31T20:30:12;11.30;99.90
23411;DHT22;11878;51.774;7.220;2023-10-31T20:33:14;11.30;99.90
23411;DHT22;11878;51.774;7.220;2023-10-31T20:36:17;11.40;99.90
23411;DHT22;11878;51.774;7.220;2023-10-31T20:39:18;11.30;99.90
23411;DHT22;11878;51.774;7.220;2023-10-31T20:42:20;11.30;99.90
23411;DHT22;11878;51.774;7.220;2023-10-31T20:45:23;11.20;99.90
23411;DHT22;11878;51.774;7.220;2023-10-31T20:48:25;11.20;99.90
23411;DHT22;11878;51.774;7.220;2023-10-31T20:51:27;11.20;99.90
23411;DHT22;11878;51.774;7.220;2023-10-31T20:54:29;11.20;99.90
23411;DHT22;11878;51.774;7.220;2023-10-31T20:57:30;11.20;99.90
23411;DHT22;11878;51.774;7.220;2023-10-31T21:00:32;11.20;99.90
23411;DHT22;11878;51.774;7.220;2023-10-31T21:03:34;11.10;99.90
23411;DHT22;11878;51.774;7.220;2023-10-31T21:06:36;11.20;99.90
23411;DHT22;11878;51.774;7.220;2023-10-31T21:09:39;11.20;99.90
23411;DHT22;11878;51.774;7.220;2023-10-31T21:16:12;11.20;99.90
23411;DHT22;11878;51.774;7.220;2023-10-31T21:19:14;11.20;99.90
23411;DHT22;11878;51.774;7.220;2023-10-31T21:25:58;11.20;99.90
23411;DHT22;11878;51.774;7.220;2023-10-31T21:29:00;11.20;99.90
23411;DHT22;11878;51.774;7.220;2023-10-31T21:32:02;11.20;99.90
23411;DHT22;11878;51.774;7.220;2023-10-31T21:35:05;11.30;99.90
23411;DHT22;11878;51.774;7.220;2023-10-31T21:38:07;11.30;99.90
23411;DHT22;11878;51.774;7.220;2023-10-31T21:41:09;11.30;99.90
23411;DHT22;11878;51.774;7.220;2023-10-31T21:51:06;11.30;99.90
23411;DHT22;11878;51.774;7.220;2023-10-31T21:54:08;11.40;99.90
23411;DHT22;11878;51.774;7.220;2023-10-31T22:07:42;11.30;99.90
23411;DHT22;11878;51.774;7.220;2023-10-31T22:10:44;11.30;99.90
23411;DHT22;11878;51.774;7.220;2023-10-31T22:13:47;11.30;99.90
23411;DHT22;11878;51.774;7.220;2023-10-31T22:16:48;11.30;99.90
23411;DHT22;11878;51.774;7.220;2023-10-31T22:19:51;11.40;99.90
23411;DHT22;11878;51.774;7.220;2023-10-31T22:22:55;11.40;99.90
23411;DHT22;11878;51.774;7.220;2023-10-31T22:25:56;11.40;99.90
23411;DHT22;11878;51.774;7.220;2023-10-31T22:28:58;11.40;99.90
23411;DHT22;11878;51.774;7.220;2023-10-31T22:32:00;11.40;99.90
23411;DHT22;11878;51.774;7.220;2023-10-31T22:35:03;11.40;99.90
23411;DHT22;11878;51.774;7.220;2023-10-31T22:38:05;9.80;99.90
23411;DHT22;11878;51.774;7.220;2023-10-31T22:41:07;11.40;99.90
23411;DHT22;11878;51.774;7.220;2023-10-31T22:44:09;11.40;99.90
23411;DHT22;11878;51.774;7.220;2023-10-31T22:47:11;11.40;99.90
23411;DHT22;11878;51.774;7.220;2023-10-31T22:50:12;11.40;99.90
23411;DHT22;11878;51.774;7.220;2023-10-31T22:53:15;11.80;99.90
23411;DHT22;11878;51.774;7.220;2023-10-31T22:56:21;11.40;99.90
23411;DHT22;11878;51.774;7.220;2023-10-31T23:03:01;11.40;99.90
23411;DHT22;11878;51.774;7.220;2023-10-31T23:09:57;11.50;99.90
23411;DHT22;11878;51.774;7.220;2023-10-31T23:12:58;11.40;99.90
23411;DHT22;11878;51.774;7.220;2023-10-31T23:16:00;11.40;99.90
23411;DHT22;11878;51.774;7.220;2023-10-31T23:19:02;11.40;99.90
23411;DHT22;11878;51.774;7.220;2023-10-31T23:22:04;11.40;99.90
23411;DHT22;11878;51.774;7.220;2023-10-31T23:25:06;11.40;99.90
23411;DHT22;11878;51.774;7.220;2023-10-31T23:28:08;11.40;99.90
23411;DHT22;11878;51.774;7.220;2023-10-31T23:31:10;11.40;99.90
23411;DHT22;11878;51.774;7.220;2023-10-31T23:34:12;11.40;99.90
23411;DHT22;11878;51.774;7.220;2023-10-31T23:37:14;11.40;99.90
23411;DHT22;11878;51.774;7.220;2023-10-31T23:40:16;11.40;99.90
23411;DHT22;11878;51.774;7.220;2023-10-31T23:43:18;11.30;99.90
23411;DHT22;11878;51.774;7.220;2023-10-31T23:46:19;11.50;99.90
23411;DHT22;11878;51.774;7.220;2023-10-31T23:49:21;11.50;99.90
23411;DHT22;11878;51.774;7.220;2023-10-31T23:52:23;11.50;99.90
23411;DHT22;11878;51.774;7.220;2023-10-31T23:55:25;11.50;99.90
23411;DHT22;11878;51.774;7.220;2023-10-31T23:58:27;11.50;99.90
